createdAt,value
2023-02-24T00:02:22.274Z,86.97
2023-02-24T00:04:51.929Z,87.82
2023-02-24T00:07:23.542Z,87.77
2023-02-24T00:09:52.923Z,87.53
2023-02-24T00:12:24.548Z,88.96
2023-02-24T00:14:52.866Z,91.25
2023-02-24T00:17:27.817Z,89.96
2023-02-24T00:19:56.100Z,88.38
2023-02-24T00:22:26.894Z,90.74
2023-02-24T00:25:01.675Z,92.11
2023-02-24T00:27:42.841Z,91.46
2023-02-24T00:30:14.890Z,87.30
2023-02-24T00:32:44.620Z,85.94
2023-02-24T00:35:12.539Z,85.52
2023-02-24T00:37:40.352Z,84.90
2023-02-24T00:40:13.201Z,83.25
2023-02-24T00:42:43.107Z,85.86
2023-02-24T00:45:16.766Z,84.61
2023-02-24T00:47:47.510Z,82.55
2023-02-24T00:50:22.519Z,83.43
2023-02-24T00:52:53.380Z,83.96
2023-02-24T00:55:25.419Z,87.17
2023-02-24T00:57:54.913Z,85.28
2023-02-24T01:00:23.611Z,84.48
2023-02-24T01:02:52.885Z,82.18
2023-02-24T01:05:30.120Z,87.11
2023-02-24T01:08:21.700Z,87.25
2023-02-24T01:11:17.306Z,88.30
2023-02-24T01:13:46.200Z,87.36
2023-02-24T01:16:19.726Z,87.07
2023-02-24T01:18:53.427Z,88.73
2023-02-24T01:21:25.094Z,89.29
2023-02-24T01:23:56.157Z,87.74
2023-02-24T01:26:26.152Z,86.55
2023-02-24T01:28:56.445Z,88.23
2023-02-24T01:31:28.792Z,83.01
2023-02-24T01:33:56.818Z,83.39
2023-02-24T01:36:27.810Z,84.39
2023-02-24T01:38:57.991Z,86.44
2023-02-24T01:41:30.797Z,86.17
2023-02-24T01:44:09.738Z,84.93
2023-02-24T01:46:39.000Z,82.04
2023-02-24T01:49:09.984Z,80.78
2023-02-24T01:51:44.970Z,80.57
2023-02-24T01:54:17.126Z,81.40
2023-02-24T01:56:48.326Z,81.51
2023-02-24T01:59:19.946Z,81.32
2023-02-24T02:01:48.598Z,82.98
2023-02-24T02:04:36.566Z,84.64
2023-02-24T02:07:04.908Z,84.91
2023-02-24T02:09:34.196Z,83.68
2023-02-24T02:12:09.534Z,82.03
2023-02-24T02:14:50.157Z,83.53
2023-02-24T02:17:26.600Z,82.32
2023-02-24T02:20:16.856Z,81.20
2023-02-24T02:23:06.850Z,80.89
2023-02-24T02:25:49.675Z,83.43
2023-02-24T02:28:38.603Z,84.21
2023-02-24T02:31:46.768Z,81.98
2023-02-24T02:34:23.747Z,82.54
2023-02-24T02:37:02.740Z,82.04
2023-02-24T02:39:48.921Z,82.56
2023-02-24T02:42:28.163Z,82.31
2023-02-24T02:45:05.198Z,82.28
2023-02-24T02:47:37.099Z,82.92
2023-02-24T02:50:12.019Z,83.59
2023-02-24T02:52:42.637Z,84.28
2023-02-24T02:55:14.115Z,81.60
2023-02-24T02:57:48.422Z,84.67
2023-02-24T03:00:21.548Z,83.17
2023-02-24T03:02:55.409Z,85.72
2023-02-24T03:05:37.323Z,84.24
2023-02-24T03:08:12.252Z,80.93
2023-02-24T03:10:44.770Z,80.16
2023-02-24T03:13:16.827Z,80.31
2023-02-24T03:15:45.910Z,79.66
2023-02-24T03:18:19.175Z,80.27
2023-02-24T03:20:52.898Z,80.74
2023-02-24T03:23:27.061Z,78.45
2023-02-24T03:26:00.096Z,79.90
2023-02-24T03:28:37.440Z,79.22
2023-02-24T03:31:18.725Z,83.57
2023-02-24T03:33:51.864Z,82.53
2023-02-24T03:36:23.371Z,81.15
2023-02-24T03:38:58.333Z,82.91
2023-02-24T03:41:30.438Z,86.25
2023-02-24T03:43:59.813Z,89.05
2023-02-24T03:46:30.439Z,89.20
2023-02-24T03:49:08.702Z,88.52
2023-02-24T03:51:44.896Z,86.05
2023-02-24T03:54:21.137Z,84.51
2023-02-24T03:57:00.095Z,83.55
2023-02-24T03:59:39.958Z,83.63
2023-02-24T04:02:14.370Z,82.16
2023-02-24T04:04:46.500Z,83.12
2023-02-24T04:07:18.889Z,84.83
2023-02-24T04:09:51.943Z,87.00
2023-02-24T04:12:25.595Z,90.23
2023-02-24T04:14:57.937Z,89.11
2023-02-24T04:17:28.602Z,87.82
2023-02-24T04:20:02.637Z,87.80
2023-02-24T04:22:42.616Z,88.94
2023-02-24T04:25:15.822Z,85.80
2023-02-24T04:27:44.883Z,84.43
2023-02-24T04:30:21.745Z,82.37
2023-02-24T04:32:54.329Z,81.68
2023-02-24T04:35:25.395Z,83.78
2023-02-24T04:37:58.046Z,83.11
2023-02-24T04:40:28.961Z,85.19
2023-02-24T04:42:57.222Z,87.56
2023-02-24T04:45:31.966Z,88.23
2023-02-24T04:48:03.990Z,89.48
2023-02-24T04:50:34.077Z,90.30
2023-02-24T04:53:09.187Z,88.28
2023-02-24T04:55:49.934Z,87.29
2023-02-24T04:58:20.694Z,89.53
2023-02-24T05:00:52.761Z,90.76
2023-02-24T05:03:28.637Z,92.50
2023-02-24T05:06:00.324Z,91.81
2023-02-24T05:08:32.327Z,94.18
2023-02-24T05:11:05.195Z,94.79
2023-02-24T05:13:34.423Z,91.02
2023-02-24T05:16:09.465Z,87.93
2023-02-24T05:18:40.958Z,86.75
2023-02-24T05:21:30.887Z,83.91
2023-02-24T05:24:04.663Z,84.50
2023-02-24T05:26:33.999Z,83.26
2023-02-24T05:29:06.832Z,82.08
2023-02-24T05:31:34.923Z,83.23
2023-02-24T05:34:03.926Z,83.62
2023-02-24T05:36:33.863Z,83.10
2023-02-24T05:39:07.477Z,83.80
2023-02-24T05:41:39.208Z,83.11
2023-02-24T05:44:10.438Z,84.28
2023-02-24T05:46:41.585Z,82.65
2023-02-24T05:49:14.504Z,80.64
2023-02-24T05:51:47.245Z,80.88
2023-02-24T05:54:24.157Z,80.70
2023-02-24T05:56:54.648Z,81.02
2023-02-24T05:59:23.259Z,79.64
2023-02-24T06:01:53.770Z,83.20
2023-02-24T06:04:39.667Z,86.02
2023-02-24T06:07:09.176Z,86.34
2023-02-24T06:09:40.815Z,86.84
2023-02-24T06:12:09.188Z,87.31
2023-02-24T06:14:37.623Z,85.27
2023-02-24T06:17:06.729Z,83.56
2023-02-24T06:19:38.629Z,87.91
2023-02-24T06:22:10.892Z,87.49
2023-02-24T06:24:44.206Z,89.27
2023-02-24T06:27:17.910Z,91.45
2023-02-24T06:29:50.091Z,90.96
2023-02-24T06:32:23.512Z,91.30
2023-02-24T06:34:54.611Z,88.38
2023-02-24T06:37:24.160Z,87.93
2023-02-24T06:39:53.946Z,85.63
2023-02-24T06:42:22.079Z,83.02
2023-02-24T06:44:50.446Z,83.58
2023-02-24T06:47:19.700Z,83.53
2023-02-24T06:49:48.617Z,81.19
2023-02-24T06:52:19.316Z,81.55
2023-02-24T06:54:50.719Z,81.09
2023-02-24T06:57:23.705Z,82.10
2023-02-24T06:59:52.380Z,80.82
2023-02-24T07:02:20.525Z,80.30
2023-02-24T07:04:51.765Z,80.17
2023-02-24T07:07:19.918Z,83.31
2023-02-24T07:09:48.227Z,82.58
2023-02-24T07:12:21.274Z,82.51
2023-02-24T07:14:51.338Z,79.44
2023-02-24T07:17:22.299Z,80.24
2023-02-24T07:19:50.233Z,82.08
2023-02-24T07:22:25.566Z,83.13
2023-02-24T07:25:00.662Z,81.01
2023-02-24T07:27:28.955Z,80.40
2023-02-24T07:30:01.559Z,79.94
2023-02-24T07:32:31.226Z,79.37
2023-02-24T07:34:59.660Z,80.62
2023-02-24T07:37:31.924Z,81.48
2023-02-24T07:39:59.826Z,78.18
2023-02-24T07:42:30.788Z,79.89
2023-02-24T07:45:00.549Z,79.99
2023-02-24T07:47:29.421Z,79.47
2023-02-24T07:49:57.294Z,78.63
2023-02-24T07:52:28.247Z,77.08
2023-02-24T07:54:56.215Z,77.48
2023-02-24T07:57:25.213Z,76.95
2023-02-24T07:59:57.690Z,77.65
2023-02-24T08:02:30.239Z,78.69
2023-02-24T08:05:03.264Z,78.18
2023-02-24T08:07:33.409Z,81.55
2023-02-24T08:10:25.396Z,82.82
2023-02-24T08:13:03.500Z,83.37
2023-02-24T08:15:34.552Z,81.94
2023-02-24T08:18:06.765Z,82.28
2023-02-24T08:20:52.504Z,83.81
2023-02-24T08:23:23.650Z,82.66
2023-02-24T08:25:51.894Z,85.63
2023-02-24T08:28:19.984Z,83.98
2023-02-24T08:30:56.985Z,81.96
2023-02-24T08:33:30.225Z,84.29
2023-02-24T08:36:02.708Z,83.09
2023-02-24T08:38:41.925Z,82.14
2023-02-24T08:41:19.124Z,83.11
2023-02-24T08:43:51.497Z,80.87
2023-02-24T08:46:28.737Z,80.74
2023-02-24T08:49:00.888Z,79.91
2023-02-24T08:51:43.815Z,78.22
2023-02-24T08:54:15.648Z,78.67
2023-02-24T08:56:50.246Z,80.73
2023-02-24T08:59:38.855Z,80.34
2023-02-24T09:02:24.702Z,77.75
2023-02-24T09:04:56.146Z,76.09
2023-02-24T09:07:28.878Z,74.30
2023-02-24T09:09:57.547Z,72.93
2023-02-24T09:12:32.941Z,74.24
2023-02-24T09:15:06.372Z,74.00
2023-02-24T09:17:52.227Z,73.18
2023-02-24T09:20:41.319Z,75.94
2023-02-24T09:23:25.152Z,74.02
2023-02-24T09:25:54.375Z,76.40
2023-02-24T09:28:26.924Z,76.53
2023-02-24T09:30:59.386Z,80.09
2023-02-24T09:33:29.094Z,80.49
2023-02-24T09:36:10.931Z,79.67
2023-02-24T09:39:00.013Z,79.85
2023-02-24T09:41:33.442Z,81.86
2023-02-24T09:44:08.636Z,81.64
2023-02-24T09:46:54.377Z,84.38
2023-02-24T09:49:26.313Z,83.35
2023-02-24T09:52:00.926Z,82.06
2023-02-24T09:54:36.379Z,80.24
2023-02-24T09:57:10.700Z,81.47
2023-02-24T10:00:01.348Z,80.54
2023-02-24T10:02:44.216Z,80.16
2023-02-24T10:05:24.935Z,79.48
2023-02-24T10:08:00.132Z,79.94
2023-02-24T10:10:35.909Z,78.14
2023-02-24T10:13:14.915Z,79.31
2023-02-24T10:16:07.319Z,78.71
2023-02-24T10:18:41.907Z,76.26
2023-02-24T10:21:21.116Z,78.48
2023-02-24T10:24:03.626Z,84.13
2023-02-24T10:26:59.547Z,84.78
2023-02-24T10:29:50.934Z,86.61
2023-02-24T10:32:34.698Z,86.60
2023-02-24T10:35:16.510Z,85.51
2023-02-24T10:37:44.985Z,87.28
2023-02-24T10:40:26.499Z,86.60
2023-02-24T10:43:10.767Z,86.65
2023-02-24T10:45:50.862Z,87.91
2023-02-24T10:48:40.299Z,86.62
2023-02-24T10:51:20.101Z,86.61
2023-02-24T10:54:09.684Z,87.57
2023-02-24T10:56:59.309Z,84.78
2023-02-24T10:59:58.670Z,83.49
2023-02-24T11:02:33.146Z,79.24
2023-02-24T11:05:27.065Z,80.78
2023-02-24T11:08:12.478Z,81.51
2023-02-24T11:10:58.762Z,82.20
2023-02-24T11:13:45.791Z,84.74
2023-02-24T11:16:31.070Z,84.70
2023-02-24T11:19:07.224Z,83.61
2023-02-24T11:21:38.928Z,81.71
2023-02-24T11:24:12.682Z,81.94
2023-02-24T11:26:46.255Z,82.21
2023-02-24T11:29:38.147Z,79.22
2023-02-24T11:32:18.396Z,77.92
2023-02-24T11:34:52.806Z,81.94
2023-02-24T11:37:34.686Z,81.66
2023-02-24T11:40:05.658Z,77.67
2023-02-24T11:42:38.808Z,76.33
2023-02-24T11:45:18.789Z,75.76
2023-02-24T11:47:54.032Z,77.41
2023-02-24T11:50:31.127Z,77.01
2023-02-24T11:53:01.387Z,77.83
2023-02-24T11:55:36.202Z,77.35
2023-02-24T11:58:08.666Z,75.33
2023-02-24T12:00:40.366Z,74.72
2023-02-24T12:03:19.367Z,75.73
2023-02-24T12:05:51.664Z,74.52
2023-02-24T12:08:28.388Z,75.53
2023-02-24T12:11:07.526Z,73.46
2023-02-24T12:13:40.713Z,73.51
2023-02-24T12:16:16.964Z,75.29
2023-02-24T12:18:48.037Z,75.21
2023-02-24T12:21:22.906Z,73.40
2023-02-24T12:23:53.832Z,70.89
2023-02-24T12:26:27.238Z,72.05
2023-02-24T12:29:11.004Z,74.70
2023-02-24T12:31:53.859Z,75.43
2023-02-24T12:34:39.326Z,74.72
2023-02-24T12:37:26.171Z,73.18
2023-02-24T12:40:03.451Z,73.28
2023-02-24T12:42:39.517Z,72.38
2023-02-24T12:45:13.612Z,69.86
2023-02-24T12:47:58.262Z,71.26
2023-02-24T12:50:34.108Z,69.87
2023-02-24T12:53:07.682Z,69.76
2023-02-24T12:55:46.985Z,71.75
2023-02-24T12:58:19.154Z,71.00
2023-02-24T13:00:59.530Z,71.67
2023-02-24T13:03:39.451Z,72.51
2023-02-24T13:06:14.133Z,72.24
2023-02-24T13:08:56.770Z,73.35
2023-02-24T13:11:33.834Z,71.08
2023-02-24T13:14:05.292Z,72.34
2023-02-24T13:16:39.726Z,72.03
2023-02-24T13:19:20.909Z,71.98
2023-02-24T13:22:03.328Z,72.12
2023-02-24T13:24:31.277Z,73.60
2023-02-24T13:27:08.916Z,73.93
2023-02-24T13:29:45.268Z,75.46
2023-02-24T13:32:32.863Z,76.40
2023-02-24T13:35:05.448Z,75.64
2023-02-24T13:37:36.718Z,74.60
2023-02-24T13:40:24.405Z,75.31
2023-02-24T13:43:01.455Z,74.80
2023-02-24T13:45:33.677Z,73.28
2023-02-24T13:48:17.813Z,73.11
2023-02-24T13:50:59.500Z,75.11
2023-02-24T13:53:51.142Z,74.31
2023-02-24T13:56:42.188Z,74.55
2023-02-24T13:59:21.842Z,73.58
2023-02-24T14:02:01.229Z,72.62
2023-02-24T14:04:32.814Z,74.43
2023-02-24T14:07:05.324Z,76.94
2023-02-24T14:09:35.718Z,74.14
2023-02-24T14:12:07.227Z,77.25
2023-02-24T14:14:36.525Z,75.69
2023-02-24T14:17:10.358Z,73.97
2023-02-24T14:19:39.158Z,73.80
2023-02-24T14:22:20.977Z,74.44
2023-02-24T14:24:55.323Z,76.68
2023-02-24T14:27:26.567Z,74.88
2023-02-24T14:29:55.276Z,74.91
2023-02-24T14:32:25.243Z,73.58
2023-02-24T14:34:54.783Z,75.27
2023-02-24T14:37:31.952Z,76.00
2023-02-24T14:40:05.949Z,75.66
2023-02-24T14:42:34.486Z,73.78
2023-02-24T14:45:06.294Z,75.69
2023-02-24T14:47:43.165Z,74.42
2023-02-24T14:50:20.520Z,75.14
2023-02-24T14:52:53.156Z,75.42
2023-02-24T14:55:28.086Z,75.57
2023-02-24T14:58:00.303Z,75.58
2023-02-24T15:00:31.565Z,75.99
2023-02-24T15:03:05.821Z,74.61
2023-02-24T15:05:44.646Z,75.37
2023-02-24T15:08:37.443Z,73.84
2023-02-24T15:11:12.425Z,73.53
2023-02-24T15:13:44.439Z,76.25
2023-02-24T15:16:15.847Z,75.59
2023-02-24T15:18:43.952Z,74.30
2023-02-24T15:21:21.191Z,74.62
2023-02-24T15:24:19.014Z,75.42
2023-02-24T15:26:56.863Z,75.34
2023-02-24T15:29:27.125Z,75.71
2023-02-24T15:31:56.140Z,74.87
2023-02-24T15:34:26.511Z,74.52
2023-02-24T15:36:59.025Z,76.83
2023-02-24T15:39:33.435Z,76.78
2023-02-24T15:42:08.544Z,75.94
2023-02-24T15:44:37.099Z,75.31
2023-02-24T15:47:20.736Z,77.17
2023-02-24T15:49:48.545Z,78.23
2023-02-24T15:52:23.283Z,76.97
2023-02-24T15:54:58.052Z,75.13
2023-02-24T15:57:27.900Z,75.67
2023-02-24T15:59:55.752Z,75.72
2023-02-24T16:02:24.609Z,76.48
2023-02-24T16:04:53.346Z,76.86
2023-02-24T16:07:26.306Z,76.69
2023-02-24T16:09:58.296Z,78.25
2023-02-24T16:12:34.867Z,77.35
2023-02-24T16:15:04.430Z,78.10
2023-02-24T16:17:37.979Z,79.37
2023-02-24T16:20:09.342Z,79.91
2023-02-24T16:22:37.287Z,80.83
2023-02-24T16:25:07.597Z,81.70
2023-02-24T16:27:37.754Z,81.07
2023-02-24T16:30:07.337Z,80.78
2023-02-24T16:32:35.617Z,82.94
2023-02-24T16:35:05.733Z,81.85
2023-02-24T16:37:36.184Z,82.48
2023-02-24T16:40:10.609Z,83.81
2023-02-24T16:42:40.483Z,85.13
2023-02-24T16:45:14.383Z,84.31
2023-02-24T16:47:43.121Z,83.58
2023-02-24T16:50:19.915Z,83.60
2023-02-24T16:52:47.842Z,85.43
2023-02-24T16:55:18.909Z,85.80
2023-02-24T16:57:48.844Z,86.00
2023-02-24T17:00:18.376Z,85.68
2023-02-24T17:02:50.178Z,84.77
2023-02-24T17:05:20.420Z,84.00
2023-02-24T17:07:49.314Z,84.44
2023-02-24T17:10:17.807Z,85.55
2023-02-24T17:12:46.342Z,86.25
2023-02-24T17:15:17.518Z,85.35
2023-02-24T17:17:47.728Z,84.44
2023-02-24T17:20:17.402Z,83.32
2023-02-24T17:22:45.830Z,84.59
2023-02-24T17:25:22.456Z,83.81
2023-02-24T17:27:53.375Z,85.60
2023-02-24T17:30:26.992Z,86.72
2023-02-24T17:32:55.350Z,85.26
2023-02-24T17:35:24.139Z,86.11
2023-02-24T17:37:56.628Z,85.14
2023-02-24T17:40:24.930Z,85.32
2023-02-24T17:42:53.021Z,83.73
2023-02-24T17:45:28.409Z,84.11
2023-02-24T17:48:07.150Z,83.95
2023-02-24T17:50:40.573Z,82.93
2023-02-24T17:53:10.675Z,84.12
2023-02-24T17:56:01.119Z,83.01
2023-02-24T17:58:34.789Z,82.55
2023-02-24T18:01:07.739Z,81.31
2023-02-24T18:03:36.781Z,81.99
2023-02-24T18:06:10.516Z,81.76
2023-02-24T18:08:41.674Z,81.46
2023-02-24T18:11:13.372Z,81.38
2023-02-24T18:13:41.161Z,79.79
2023-02-24T18:16:12.953Z,80.71
2023-02-24T18:18:41.178Z,83.28
2023-02-24T18:21:10.877Z,82.59
2023-02-24T18:23:41.813Z,82.66
2023-02-24T18:26:16.717Z,81.57
2023-02-24T18:28:44.519Z,80.20
2023-02-24T18:31:16.328Z,79.87
2023-02-24T18:33:44.674Z,80.46
2023-02-24T18:36:13.431Z,81.89
2023-02-24T18:38:41.749Z,80.53
2023-02-24T18:41:12.411Z,80.80
2023-02-24T18:43:42.868Z,81.35
2023-02-24T18:46:18.633Z,81.06
2023-02-24T18:48:49.833Z,80.67
2023-02-24T18:51:19.739Z,79.71
2023-02-24T18:53:48.517Z,80.00
2023-02-24T18:56:21.893Z,79.40
2023-02-24T18:58:51.540Z,78.81
2023-02-24T19:01:33.261Z,77.70
2023-02-24T19:04:04.395Z,77.99
2023-02-24T19:06:47.164Z,78.68
2023-02-24T19:09:15.308Z,78.00
2023-02-24T19:11:43.480Z,80.73
2023-02-24T19:14:15.940Z,77.26
2023-02-24T19:16:45.705Z,78.50
2023-02-24T19:19:14.864Z,78.82
2023-02-24T19:21:46.184Z,78.67
2023-02-24T19:24:14.564Z,79.25
2023-02-24T19:26:47.650Z,78.67
2023-02-24T19:29:17.557Z,79.23
2023-02-24T19:31:47.124Z,79.86
2023-02-24T19:34:16.159Z,79.78
2023-02-24T19:36:50.763Z,79.08
2023-02-24T19:39:18.953Z,80.11
2023-02-24T19:41:54.486Z,80.01
2023-02-24T19:44:22.683Z,81.65
2023-02-24T19:46:55.250Z,81.77
2023-02-24T19:49:25.937Z,83.99
2023-02-24T19:51:55.049Z,82.71
2023-02-24T19:54:25.705Z,82.49
2023-02-24T19:56:57.163Z,83.76
2023-02-24T19:59:25.474Z,82.62
2023-02-24T20:01:55.262Z,82.76
2023-02-24T20:04:40.524Z,80.94
2023-02-24T20:07:11.838Z,82.52
2023-02-24T20:09:42.106Z,81.37
2023-02-24T20:12:12.692Z,78.41
2023-02-24T20:14:41.225Z,80.51
2023-02-24T20:17:15.310Z,81.65
2023-02-24T20:19:43.665Z,80.67
2023-02-24T20:22:13.560Z,79.73
2023-02-24T20:24:42.812Z,79.58
2023-02-24T20:27:12.294Z,78.67
2023-02-24T20:29:41.606Z,80.55
2023-02-24T20:32:11.537Z,79.31
2023-02-24T20:34:40.122Z,83.41
2023-02-24T20:37:08.092Z,81.35
2023-02-24T20:39:44.230Z,82.43
2023-02-24T20:42:12.528Z,82.80
2023-02-24T20:44:45.074Z,83.02
2023-02-24T20:47:21.770Z,85.46
2023-02-24T20:49:52.736Z,84.60
2023-02-24T20:52:20.619Z,83.63
2023-02-24T20:54:49.496Z,83.92
2023-02-24T20:57:17.762Z,83.50
2023-02-24T21:00:01.492Z,83.70
2023-02-24T21:02:32.610Z,83.36
2023-02-24T21:05:03.178Z,83.94
2023-02-24T21:07:32.746Z,83.88
2023-02-24T21:10:00.736Z,83.97
2023-02-24T21:12:28.679Z,83.38
2023-02-24T21:14:57.705Z,81.39
2023-02-24T21:17:25.682Z,83.69
2023-02-24T21:19:56.794Z,83.65
2023-02-24T21:22:27.223Z,82.07
2023-02-24T21:24:58.162Z,83.23
2023-02-24T21:27:27.450Z,80.94
2023-02-24T21:29:57.320Z,82.14
2023-02-24T21:32:28.011Z,83.17
2023-02-24T21:35:05.082Z,83.77
2023-02-24T21:37:35.171Z,85.95
2023-02-24T21:40:10.871Z,88.24
2023-02-24T21:42:47.669Z,88.03
2023-02-24T21:45:21.448Z,88.72
2023-02-24T21:47:49.611Z,89.28
2023-02-24T21:50:21.760Z,90.52
2023-02-24T21:52:52.064Z,91.09
2023-02-24T21:55:23.502Z,90.15
2023-02-24T21:57:53.966Z,88.90
2023-02-24T22:00:24.196Z,87.17
2023-02-24T22:02:54.471Z,88.26
2023-02-24T22:05:25.368Z,88.42
2023-02-24T22:07:54.322Z,88.70
2023-02-24T22:10:24.252Z,89.52
2023-02-24T22:12:55.229Z,90.10
2023-02-24T22:15:24.266Z,89.35
2023-02-24T22:17:54.486Z,87.94
2023-02-24T22:20:23.824Z,88.08
2023-02-24T22:22:51.729Z,87.84
2023-02-24T22:25:20.710Z,85.76
2023-02-24T22:27:48.689Z,83.86
2023-02-24T22:30:16.617Z,83.02
2023-02-24T22:32:47.301Z,80.29
2023-02-24T22:35:17.683Z,79.87
2023-02-24T22:37:46.976Z,79.88
2023-02-24T22:40:20.807Z,83.13
2023-02-24T22:42:51.736Z,82.70
2023-02-24T22:45:20.821Z,82.86
2023-02-24T22:47:48.725Z,80.01
2023-02-24T22:50:16.986Z,82.06
2023-02-24T22:52:48.974Z,81.38
2023-02-24T22:55:24.082Z,81.40
2023-02-24T22:57:58.174Z,82.87
2023-02-24T23:00:26.332Z,83.60
2023-02-24T23:02:54.133Z,81.81
2023-02-24T23:05:22.489Z,79.72
2023-02-24T23:07:51.673Z,77.76
2023-02-24T23:10:19.653Z,79.28
2023-02-24T23:12:48.744Z,77.80
2023-02-24T23:15:20.131Z,78.76
2023-02-24T23:17:51.451Z,78.22
2023-02-24T23:20:20.133Z,77.51
2023-02-24T23:23:05.601Z,77.13
2023-02-24T23:25:36.372Z,76.46
2023-02-24T23:28:05.270Z,73.13
2023-02-24T23:30:43.451Z,75.67
2023-02-24T23:33:12.260Z,76.18
2023-02-24T23:35:46.495Z,76.56
2023-02-24T23:38:18.467Z,75.38
2023-02-24T23:40:50.433Z,76.18
2023-02-24T23:43:23.804Z,75.66
2023-02-24T23:45:51.612Z,76.01
2023-02-24T23:48:24.986Z,75.94
2023-02-24T23:50:57.220Z,75.83
2023-02-24T23:53:26.645Z,77.48
2023-02-24T23:55:54.557Z,76.52
2023-02-24T23:58:26.593Z,76.79
